Etusivu
METAR-TAF:

METAR-TAF

Lentoasemat :

Limoges, Ranska

Leveyspiiri: 45-52N, Pituuspiiri: 001-11E, korkeus merenpinnasta: 396 m

Tämänhetkinen sää

Tämä raportti tehtiin 22 minuuttia sitten, kello 09.00 UTC
Tuuli 6 kn pohjoisesta, vaihdellen pohjoisen/luoteen ja koillisen välillä
Lämpötila 21°C
Kosteus 53%
Ilmanpaine 1022 hPa
Näkyvyys 10 km tai enemmän
ei pilviä alle 1500 m:ssä eikä cumulonimbus-pilviä

METAR: LFBL 130900Z AUTO 01006KT 330V040 CAVOK 21/11 Q1022 NOSIG

Aika: 11:22 (09:22 UTC)

Sääennuste

Tämä raportti tehtiin 4 tuntia ja 22 minuuttia sitten, kello 05.00 UTC
Ennuste voimassa 13. päivästä klo 06 UTC - 14. päivään klo 06 UTC
Tuuli 8 kn pohjoisesta
Näkyvyys 10 km tai enemmän
ei pilviä alle 1500 m:ssä eikä cumulonimbus-pilviä

TAF: LFBL 130500Z 1306/1406 01008KT CAVOK

Säähavainnot ja -ennusteet yli 4000 lentoasemalta (METAR- ja TAF-raportit).

Käytössä olevat sääasemat on merkitty karttaan keltaisilla ja punaisilla pisteillä.

Aseta hiiri pisteen päälle nähdäksesi sääaseman nimen.

Klikkaa sitten nähdäksesi säähavainnot ja -ennusteet.

Kartan vaihtaminen: klikkaa mustalla rastilla varustettuja vihreitä pisteitä, niin voit zoomata sisään; viivalla varustettua vihreää pistettä, niin voit zoomata ulos tai vihreitä nuolia, niin pääset viereisille kartoille.


METAR-TAF: